sensor_id;sensor_type;location;lat;lon;timestamp;temperature;humidity
41944;DHT22;27636;52.610;13.244;2023-06-14T00:04:04;12.70;99.90
41944;DHT22;27636;52.610;13.244;2023-06-14T00:09:10;12.50;99.90
41944;DHT22;27636;52.610;13.244;2023-06-14T00:14:15;12.40;99.90
41944;DHT22;27636;52.610;13.244;2023-06-14T00:19:19;12.40;99.90
41944;DHT22;27636;52.610;13.244;2023-06-14T00:24:24;12.30;99.90
41944;DHT22;27636;52.610;13.244;2023-06-14T00:29:28;12.20;99.90
41944;DHT22;27636;52.610;13.244;2023-06-14T00:34:32;12.00;99.90
41944;DHT22;27636;52.610;13.244;2023-06-14T00:39:38;12.00;99.90
41944;DHT22;27636;52.610;13.244;2023-06-14T00:44:41;11.90;99.90
41944;DHT22;27636;52.610;13.244;2023-06-14T00:49:45;12.00;99.90
41944;DHT22;27636;52.610;13.244;2023-06-14T00:54:50;12.10;99.90
41944;DHT22;27636;52.610;13.244;2023-06-14T00:59:54;11.80;99.90
41944;DHT22;27636;52.610;13.244;2023-06-14T01:04:58;11.70;99.90
41944;DHT22;27636;52.610;13.244;2023-06-14T01:10:12;11.70;99.90
41944;DHT22;27636;52.610;13.244;2023-06-14T01:15:21;11.70;99.90
41944;DHT22;27636;52.610;13.244;2023-06-14T01:20:28;11.80;99.90
41944;DHT22;27636;52.610;13.244;2023-06-14T01:25:34;11.80;99.90
41944;DHT22;27636;52.610;13.244;2023-06-14T01:30:40;11.60;99.90
41944;DHT22;27636;52.610;13.244;2023-06-14T01:35:51;11.60;99.90
41944;DHT22;27636;52.610;13.244;2023-06-14T01:40:57;11.60;99.90
41944;DHT22;27636;52.610;13.244;2023-06-14T01:46:03;11.40;99.90
41944;DHT22;27636;52.610;13.244;2023-06-14T01:51:06;11.30;99.90
41944;DHT22;27636;52.610;13.244;2023-06-14T01:56:12;11.30;99.90
41944;DHT22;27636;52.610;13.244;2023-06-14T02:01:16;11.10;99.90
41944;DHT22;27636;52.610;13.244;2023-06-14T02:06:21;10.90;99.90
41944;DHT22;27636;52.610;13.244;2023-06-14T02:11:27;10.80;99.90
41944;DHT22;27636;52.610;13.244;2023-06-14T02:16:31;10.80;99.90
41944;DHT22;27636;52.610;13.244;2023-06-14T02:21:39;10.90;99.90
41944;DHT22;27636;52.610;13.244;2023-06-14T02:26:43;10.90;99.90
41944;DHT22;27636;52.610;13.244;2023-06-14T02:31:50;10.90;99.90
41944;DHT22;27636;52.610;13.244;2023-06-14T02:36:56;11.00;99.90
41944;DHT22;27636;52.610;13.244;2023-06-14T02:42:01;11.00;99.90
41944;DHT22;27636;52.610;13.244;2023-06-14T02:54:09;10.90;99.90
41944;DHT22;27636;52.610;13.244;2023-06-14T02:59:16;10.80;99.90
41944;DHT22;27636;52.610;13.244;2023-06-14T03:04:20;10.90;99.90
41944;DHT22;27636;52.610;13.244;2023-06-14T03:09:24;11.00;99.90
41944;DHT22;27636;52.610;13.244;2023-06-14T03:14:31;11.10;99.90
41944;DHT22;27636;52.610;13.244;2023-06-14T03:19:35;11.20;99.90
41944;DHT22;27636;52.610;13.244;2023-06-14T03:24:40;11.20;99.90
41944;DHT22;27636;52.610;13.244;2023-06-14T03:29:48;11.20;99.90
41944;DHT22;27636;52.610;13.244;2023-06-14T03:34:52;11.30;99.90
41944;DHT22;27636;52.610;13.244;2023-06-14T03:40:00;11.40;99.90
41944;DHT22;27636;52.610;13.244;2023-06-14T03:45:08;11.50;99.90
41944;DHT22;27636;52.610;13.244;2023-06-14T03:50:13;11.60;99.90
41944;DHT22;27636;52.610;13.244;2023-06-14T03:55:17;11.80;99.90
41944;DHT22;27636;52.610;13.244;2023-06-14T04:00:25;12.00;99.90
41944;DHT22;27636;52.610;13.244;2023-06-14T04:05:30;12.10;99.90
41944;DHT22;27636;52.610;13.244;2023-06-14T04:10:34;12.20;99.90
41944;DHT22;27636;52.610;13.244;2023-06-14T04:15:39;12.30;99.90
41944;DHT22;27636;52.610;13.244;2023-06-14T04:20:47;12.50;99.90
41944;DHT22;27636;52.610;13.244;2023-06-14T04:25:52;12.70;99.90
41944;DHT22;27636;52.610;13.244;2023-06-14T04:30:59;13.00;99.90
41944;DHT22;27636;52.610;13.244;2023-06-14T04:36:06;13.40;99.90
41944;DHT22;27636;52.610;13.244;2023-06-14T04:41:11;14.20;99.90
41944;DHT22;27636;52.610;13.244;2023-06-14T04:46:19;14.80;99.90
41944;DHT22;27636;52.610;13.244;2023-06-14T04:51:24;14.90;99.90
41944;DHT22;27636;52.610;13.244;2023-06-14T04:56:33;16.30;99.90
41944;DHT22;27636;52.610;13.244;2023-06-14T05:01:40;17.80;99.90
41944;DHT22;27636;52.610;13.244;2023-06-14T05:06:44;18.90;99.90
41944;DHT22;27636;52.610;13.244;2023-06-14T05:11:48;19.40;98.90
41944;DHT22;27636;52.610;13.244;2023-06-14T05:16:55;20.30;95.90
41944;DHT22;27636;52.610;13.244;2023-06-14T05:21:58;20.80;93.30
41944;DHT22;27636;52.610;13.244;2023-06-14T05:27:02;21.30;91.70
41944;DHT22;27636;52.610;13.244;2023-06-14T05:32:08;21.10;90.30
41944;DHT22;27636;52.610;13.244;2023-06-14T05:37:11;19.10;93.90
41944;DHT22;27636;52.610;13.244;2023-06-14T05:42:16;17.80;97.70
41944;DHT22;27636;52.610;13.244;2023-06-14T05:47:21;17.30;99.90
41944;DHT22;27636;52.610;13.244;2023-06-14T05:52:24;16.60;99.90
41944;DHT22;27636;52.610;13.244;2023-06-14T05:57:28;16.50;99.90
41944;DHT22;27636;52.610;13.244;2023-06-14T06:02:33;17.00;99.90
41944;DHT22;27636;52.610;13.244;2023-06-14T06:07:37;17.10;99.90
41944;DHT22;27636;52.610;13.244;2023-06-14T06:12:41;16.70;99.90
41944;DHT22;27636;52.610;13.244;2023-06-14T06:17:46;16.80;99.90
41944;DHT22;27636;52.610;13.244;2023-06-14T06:22:58;17.00;99.90
41944;DHT22;27636;52.610;13.244;2023-06-14T06:28:02;16.70;99.90
41944;DHT22;27636;52.610;13.244;2023-06-14T06:33:07;16.50;99.90
41944;DHT22;27636;52.610;13.244;2023-06-14T06:38:11;16.60;99.90
41944;DHT22;27636;52.610;13.244;2023-06-14T06:43:14;16.60;99.90
41944;DHT22;27636;52.610;13.244;2023-06-14T06:48:24;17.00;99.90
41944;DHT22;27636;52.610;13.244;2023-06-14T06:53:28;17.40;99.90
41944;DHT22;27636;52.610;13.244;2023-06-14T06:58:43;17.50;99.90
41944;DHT22;27636;52.610;13.244;2023-06-14T07:03:48;18.20;99.90
41944;DHT22;27636;52.610;13.244;2023-06-14T07:08:52;19.00;99.90
41944;DHT22;27636;52.610;13.244;2023-06-14T07:13:56;19.40;99.40
41944;DHT22;27636;52.610;13.244;2023-06-14T07:19:01;20.10;97.60
41944;DHT22;27636;52.610;13.244;2023-06-14T07:24:05;19.10;98.10
41944;DHT22;27636;52.610;13.244;2023-06-14T07:29:09;18.80;99.70
41944;DHT22;27636;52.610;13.244;2023-06-14T07:34:14;19.10;98.80
41944;DHT22;27636;52.610;13.244;2023-06-14T07:39:18;19.10;97.90
41944;DHT22;27636;52.610;13.244;2023-06-14T07:44:22;19.20;97.60
41944;DHT22;27636;52.610;13.244;2023-06-14T07:49:27;19.30;97.10
41944;DHT22;27636;52.610;13.244;2023-06-14T07:54:31;19.50;96.00
41944;DHT22;27636;52.610;13.244;2023-06-14T07:59:36;19.90;95.40
41944;DHT22;27636;52.610;13.244;2023-06-14T08:04:41;20.60;94.50
41944;DHT22;27636;52.610;13.244;2023-06-14T08:09:45;21.70;91.00
41944;DHT22;27636;52.610;13.244;2023-06-14T08:14:48;21.90;91.20
41944;DHT22;27636;52.610;13.244;2023-06-14T08:20:13;23.40;89.30
41944;DHT22;27636;52.610;13.244;2023-06-14T08:25:24;23.30;81.70
41944;DHT22;27636;52.610;13.244;2023-06-14T08:44:48;24.70;76.60
41944;DHT22;27636;52.610;13.244;2023-06-14T08:49:53;25.80;79.30
41944;DHT22;27636;52.610;13.244;2023-06-14T08:55:00;25.90;66.80
41944;DHT22;27636;52.610;13.244;2023-06-14T09:00:10;23.50;74.60
41944;DHT22;27636;52.610;13.244;2023-06-14T09:05:17;22.80;76.60
41944;DHT22;27636;52.610;13.244;2023-06-14T09:10:22;22.60;78.50
41944;DHT22;27636;52.610;13.244;2023-06-14T09:15:27;23.20;75.20
41944;DHT22;27636;52.610;13.244;2023-06-14T09:20:32;22.60;76.70
41944;DHT22;27636;52.610;13.244;2023-06-14T09:25:42;22.50;77.90
41944;DHT22;27636;52.610;13.244;2023-06-14T09:30:49;22.50;77.40
41944;DHT22;27636;52.610;13.244;2023-06-14T09:35:53;23.50;73.40
41944;DHT22;27636;52.610;13.244;2023-06-14T09:40:59;23.50;73.40
41944;DHT22;27636;52.610;13.244;2023-06-14T09:46:05;23.10;71.70
41944;DHT22;27636;52.610;13.244;2023-06-14T09:51:10;23.10;72.90
41944;DHT22;27636;52.610;13.244;2023-06-14T09:56:23;23.50;70.20
41944;DHT22;27636;52.610;13.244;2023-06-14T10:01:31;23.30;70.20
41944;DHT22;27636;52.610;13.244;2023-06-14T10:06:37;23.90;69.70
41944;DHT22;27636;52.610;13.244;2023-06-14T10:11:44;23.30;69.60
41944;DHT22;27636;52.610;13.244;2023-06-14T10:16:55;23.30;70.00
41944;DHT22;27636;52.610;13.244;2023-06-14T10:22:02;23.00;70.40
41944;DHT22;27636;52.610;13.244;2023-06-14T10:27:08;22.90;69.60
41944;DHT22;27636;52.610;13.244;2023-06-14T10:32:17;23.20;68.80
41944;DHT22;27636;52.610;13.244;2023-06-14T10:37:22;23.20;71.70
41944;DHT22;27636;52.610;13.244;2023-06-14T10:42:28;23.80;67.80
41944;DHT22;27636;52.610;13.244;2023-06-14T10:47:36;24.60;65.70
41944;DHT22;27636;52.610;13.244;2023-06-14T10:52:42;25.00;65.70
41944;DHT22;27636;52.610;13.244;2023-06-14T10:57:51;24.30;66.20
41944;DHT22;27636;52.610;13.244;2023-06-14T11:14:15;25.10;66.80
41944;DHT22;27636;52.610;13.244;2023-06-14T11:19:21;25.70;64.40
41944;DHT22;27636;52.610;13.244;2023-06-14T11:24:25;26.30;58.70
41944;DHT22;27636;52.610;13.244;2023-06-14T11:29:29;26.80;57.60
41944;DHT22;27636;52.610;13.244;2023-06-14T11:34:35;27.10;54.20
41944;DHT22;27636;52.610;13.244;2023-06-14T11:39:43;27.30;53.80
41944;DHT22;27636;52.610;13.244;2023-06-14T11:44:47;26.40;55.10
41944;DHT22;27636;52.610;13.244;2023-06-14T11:49:52;25.90;55.20
41944;DHT22;27636;52.610;13.244;2023-06-14T11:54:56;26.20;54.30
41944;DHT22;27636;52.610;13.244;2023-06-14T11:59:59;25.60;54.20
41944;DHT22;27636;52.610;13.244;2023-06-14T12:05:06;25.90;53.70
41944;DHT22;27636;52.610;13.244;2023-06-14T12:10:14;25.50;53.40
41944;DHT22;27636;52.610;13.244;2023-06-14T12:15:18;25.60;55.60
41944;DHT22;27636;52.610;13.244;2023-06-14T12:20:23;25.90;53.90
41944;DHT22;27636;52.610;13.244;2023-06-14T12:25:32;27.00;53.50
41944;DHT22;27636;52.610;13.244;2023-06-14T12:30:37;27.00;50.20
41944;DHT22;27636;52.610;13.244;2023-06-14T12:35:42;27.70;50.30
41944;DHT22;27636;52.610;13.244;2023-06-14T12:40:46;28.20;49.70
41944;DHT22;27636;52.610;13.244;2023-06-14T12:45:50;29.00;49.00
41944;DHT22;27636;52.610;13.244;2023-06-14T12:50:55;27.90;47.90
41944;DHT22;27636;52.610;13.244;2023-06-14T12:55:59;27.10;50.50
41944;DHT22;27636;52.610;13.244;2023-06-14T13:01:03;27.70;49.40
41944;DHT22;27636;52.610;13.244;2023-06-14T13:06:08;26.70;51.30
41944;DHT22;27636;52.610;13.244;2023-06-14T13:11:11;27.60;48.30
41944;DHT22;27636;52.610;13.244;2023-06-14T13:16:15;27.00;49.00
41944;DHT22;27636;52.610;13.244;2023-06-14T13:21:20;26.40;47.40
41944;DHT22;27636;52.610;13.244;2023-06-14T13:26:24;25.70;49.50
41944;DHT22;27636;52.610;13.244;2023-06-14T13:31:29;25.00;49.30
41944;DHT22;27636;52.610;13.244;2023-06-14T13:36:34;26.20;48.40
41944;DHT22;27636;52.610;13.244;2023-06-14T13:41:38;27.10;45.60
41944;DHT22;27636;52.610;13.244;2023-06-14T13:46:41;26.00;47.30
41944;DHT22;27636;52.610;13.244;2023-06-14T13:51:47;25.50;49.30
41944;DHT22;27636;52.610;13.244;2023-06-14T13:56:51;24.50;53.70
41944;DHT22;27636;52.610;13.244;2023-06-14T14:01:55;24.40;54.90
41944;DHT22;27636;52.610;13.244;2023-06-14T14:07:00;23.80;55.80
41944;DHT22;27636;52.610;13.244;2023-06-14T14:12:05;23.40;56.80
41944;DHT22;27636;52.610;13.244;2023-06-14T14:17:08;23.10;59.00
41944;DHT22;27636;52.610;13.244;2023-06-14T14:22:14;23.00;59.30
41944;DHT22;27636;52.610;13.244;2023-06-14T14:27:17;22.70;58.40
41944;DHT22;27636;52.610;13.244;2023-06-14T14:32:21;22.50;58.70
41944;DHT22;27636;52.610;13.244;2023-06-14T14:37:26;22.50;60.50
41944;DHT22;27636;52.610;13.244;2023-06-14T14:42:29;22.60;59.60
41944;DHT22;27636;52.610;13.244;2023-06-14T14:47:33;22.50;60.20
41944;DHT22;27636;52.610;13.244;2023-06-14T14:52:38;22.40;60.30
41944;DHT22;27636;52.610;13.244;2023-06-14T14:57:41;22.30;61.40
41944;DHT22;27636;52.610;13.244;2023-06-14T15:02:44;22.40;61.70
41944;DHT22;27636;52.610;13.244;2023-06-14T15:07:49;22.60;62.00
41944;DHT22;27636;52.610;13.244;2023-06-14T15:12:53;22.70;61.30
41944;DHT22;27636;52.610;13.244;2023-06-14T15:17:57;22.60;62.00
41944;DHT22;27636;52.610;13.244;2023-06-14T15:23:03;22.30;60.90
41944;DHT22;27636;52.610;13.244;2023-06-14T15:28:06;22.30;62.10
41944;DHT22;27636;52.610;13.244;2023-06-14T15:33:12;22.20;62.10
41944;DHT22;27636;52.610;13.244;2023-06-14T15:38:17;22.20;62.00
41944;DHT22;27636;52.610;13.244;2023-06-14T15:43:20;22.20;62.30
41944;DHT22;27636;52.610;13.244;2023-06-14T15:48:26;22.30;60.50
41944;DHT22;27636;52.610;13.244;2023-06-14T15:53:32;22.40;62.40
41944;DHT22;27636;52.610;13.244;2023-06-14T15:58:35;22.40;62.30
41944;DHT22;27636;52.610;13.244;2023-06-14T16:03:38;22.40;65.30
41944;DHT22;27636;52.610;13.244;2023-06-14T16:08:44;22.30;61.30
41944;DHT22;27636;52.610;13.244;2023-06-14T16:13:48;22.40;62.30
41944;DHT22;27636;52.610;13.244;2023-06-14T16:18:52;22.60;61.60
41944;DHT22;27636;52.610;13.244;2023-06-14T16:23:57;22.80;61.90
41944;DHT22;27636;52.610;13.244;2023-06-14T16:29:00;23.10;60.90
41944;DHT22;27636;52.610;13.244;2023-06-14T16:34:04;23.20;64.00
41944;DHT22;27636;52.610;13.244;2023-06-14T16:39:12;22.90;62.10
41944;DHT22;27636;52.610;13.244;2023-06-14T16:44:16;23.00;62.20
41944;DHT22;27636;52.610;13.244;2023-06-14T16:49:22;22.70;59.40
41944;DHT22;27636;52.610;13.244;2023-06-14T16:54:26;22.60;60.20
41944;DHT22;27636;52.610;13.244;2023-06-14T16:59:30;22.40;62.40
41944;DHT22;27636;52.610;13.244;2023-06-14T17:04:33;22.30;60.60
41944;DHT22;27636;52.610;13.244;2023-06-14T17:09:38;22.00;61.60
41944;DHT22;27636;52.610;13.244;2023-06-14T17:14:41;22.00;62.30
41944;DHT22;27636;52.610;13.244;2023-06-14T17:19:46;21.70;63.40
41944;DHT22;27636;52.610;13.244;2023-06-14T17:24:50;21.60;63.60
41944;DHT22;27636;52.610;13.244;2023-06-14T17:29:54;21.50;65.00
41944;DHT22;27636;52.610;13.244;2023-06-14T17:34:57;21.50;64.60
41944;DHT22;27636;52.610;13.244;2023-06-14T17:40:02;21.40;64.40
41944;DHT22;27636;52.610;13.244;2023-06-14T17:45:07;21.30;64.90
41944;DHT22;27636;52.610;13.244;2023-06-14T17:50:11;21.10;65.80
41944;DHT22;27636;52.610;13.244;2023-06-14T17:55:16;21.10;66.00
41944;DHT22;27636;52.610;13.244;2023-06-14T18:00:20;21.00;65.50
41944;DHT22;27636;52.610;13.244;2023-06-14T18:05:23;20.90;66.90
41944;DHT22;27636;52.610;13.244;2023-06-14T18:10:30;20.90;65.80
41944;DHT22;27636;52.610;13.244;2023-06-14T18:15:33;20.90;66.00
41944;DHT22;27636;52.610;13.244;2023-06-14T18:20:37;20.60;68.50
41944;DHT22;27636;52.610;13.244;2023-06-14T18:25:41;20.60;67.00
41944;DHT22;27636;52.610;13.244;2023-06-14T18:30:45;20.70;67.60
41944;DHT22;27636;52.610;13.244;2023-06-14T18:35:48;20.50;68.60
41944;DHT22;27636;52.610;13.244;2023-06-14T18:40:54;20.40;68.50
41944;DHT22;27636;52.610;13.244;2023-06-14T18:45:57;20.40;68.00
41944;DHT22;27636;52.610;13.244;2023-06-14T18:51:03;20.30;69.60
41944;DHT22;27636;52.610;13.244;2023-06-14T18:56:07;20.10;71.50
41944;DHT22;27636;52.610;13.244;2023-06-14T19:01:11;19.90;73.00
41944;DHT22;27636;52.610;13.244;2023-06-14T19:06:16;19.90;72.40
41944;DHT22;27636;52.610;13.244;2023-06-14T19:11:21;19.70;76.50
41944;DHT22;27636;52.610;13.244;2023-06-14T19:16:24;19.50;79.30
41944;DHT22;27636;52.610;13.244;2023-06-14T19:21:28;19.40;79.80
41944;DHT22;27636;52.610;13.244;2023-06-14T19:26:33;19.30;77.50
41944;DHT22;27636;52.610;13.244;2023-06-14T19:31:36;19.30;76.80
41944;DHT22;27636;52.610;13.244;2023-06-14T19:36:40;19.30;81.80
41944;DHT22;27636;52.610;13.244;2023-06-14T19:41:45;19.20;82.70
41944;DHT22;27636;52.610;13.244;2023-06-14T19:46:49;19.10;82.80
41944;DHT22;27636;52.610;13.244;2023-06-14T19:51:52;19.00;85.60
41944;DHT22;27636;52.610;13.244;2023-06-14T19:56:57;18.80;86.10
41944;DHT22;27636;52.610;13.244;2023-06-14T20:02:02;18.70;83.50
41944;DHT22;27636;52.610;13.244;2023-06-14T20:07:06;18.60;82.40
41944;DHT22;27636;52.610;13.244;2023-06-14T20:12:11;18.80;80.30
41944;DHT22;27636;52.610;13.244;2023-06-14T20:17:14;18.80;82.20
41944;DHT22;27636;52.610;13.244;2023-06-14T20:22:18;18.80;82.30
41944;DHT22;27636;52.610;13.244;2023-06-14T20:27:23;18.70;80.20
41944;DHT22;27636;52.610;13.244;2023-06-14T20:32:27;18.60;81.10
41944;DHT22;27636;52.610;13.244;2023-06-14T20:37:31;18.80;80.20
41944;DHT22;27636;52.610;13.244;2023-06-14T20:42:35;18.70;80.20
41944;DHT22;27636;52.610;13.244;2023-06-14T20:47:39;18.80;78.20
41944;DHT22;27636;52.610;13.244;2023-06-14T20:52:44;18.70;80.30
41944;DHT22;27636;52.610;13.244;2023-06-14T20:57:49;18.60;80.50
41944;DHT22;27636;52.610;13.244;2023-06-14T21:02:54;18.40;82.50
41944;DHT22;27636;52.610;13.244;2023-06-14T21:08:00;18.40;83.70
41944;DHT22;27636;52.610;13.244;2023-06-14T21:13:05;18.10;85.50
41944;DHT22;27636;52.610;13.244;2023-06-14T21:18:09;18.00;86.50
41944;DHT22;27636;52.610;13.244;2023-06-14T21:23:14;17.90;86.60
41944;DHT22;27636;52.610;13.244;2023-06-14T21:28:19;17.90;88.50
41944;DHT22;27636;52.610;13.244;2023-06-14T21:33:22;17.80;87.10
41944;DHT22;27636;52.610;13.244;2023-06-14T21:38:26;17.70;86.20
41944;DHT22;27636;52.610;13.244;2023-06-14T21:43:31;17.80;83.10
41944;DHT22;27636;52.610;13.244;2023-06-14T21:48:34;17.60;83.90
41944;DHT22;27636;52.610;13.244;2023-06-14T21:53:38;17.50;84.30
41944;DHT22;27636;52.610;13.244;2023-06-14T21:58:43;17.40;83.90
41944;DHT22;27636;52.610;13.244;2023-06-14T22:03:46;17.10;88.20
41944;DHT22;27636;52.610;13.244;2023-06-14T22:08:50;16.90;90.30
41944;DHT22;27636;52.610;13.244;2023-06-14T22:13:55;16.80;89.90
41944;DHT22;27636;52.610;13.244;2023-06-14T22:18:59;16.80;87.90
41944;DHT22;27636;52.610;13.244;2023-06-14T22:24:04;16.60;91.60
41944;DHT22;27636;52.610;13.244;2023-06-14T22:29:10;16.50;91.70
41944;DHT22;27636;52.610;13.244;2023-06-14T22:34:14;16.40;91.30
41944;DHT22;27636;52.610;13.244;2023-06-14T22:39:18;16.30;91.60
41944;DHT22;27636;52.610;13.244;2023-06-14T22:44:24;16.10;92.90
41944;DHT22;27636;52.610;13.244;2023-06-14T22:49:32;15.80;94.80
41944;DHT22;27636;52.610;13.244;2023-06-14T22:54:38;15.60;97.40
41944;DHT22;27636;52.610;13.244;2023-06-14T22:59:42;15.40;99.90
41944;DHT22;27636;52.610;13.244;2023-06-14T23:04:46;15.20;99.90
41944;DHT22;27636;52.610;13.244;2023-06-14T23:09:50;15.00;99.90
41944;DHT22;27636;52.610;13.244;2023-06-14T23:14:55;14.90;99.90
41944;DHT22;27636;52.610;13.244;2023-06-14T23:20:02;14.80;99.90
41944;DHT22;27636;52.610;13.244;2023-06-14T23:25:10;14.50;99.90
41944;DHT22;27636;52.610;13.244;2023-06-14T23:30:18;14.30;99.90
41944;DHT22;27636;52.610;13.244;2023-06-14T23:35:22;14.20;99.90
41944;DHT22;27636;52.610;13.244;2023-06-14T23:40:29;14.00;99.90
41944;DHT22;27636;52.610;13.244;2023-06-14T23:45:34;13.90;99.90
41944;DHT22;27636;52.610;13.244;2023-06-14T23:50:38;13.80;99.90
41944;DHT22;27636;52.610;13.244;2023-06-14T23:55:41;13.80;99.90
